createdAt,value
2022-08-07T00:00:36.183Z,102908.38
2022-08-07T00:03:06.282Z,102899.78
2022-08-07T00:05:36.139Z,102912.97
2022-08-07T00:08:04.530Z,102910.34
2022-08-07T00:10:31.828Z,102903.38
2022-08-07T00:13:02.068Z,102902.69
2022-08-07T00:15:46.315Z,102898.34
2022-08-07T00:18:24.712Z,102895.78
2022-08-07T00:21:01.926Z,102897.78
2022-08-07T00:23:34.318Z,102889.91
2022-08-07T00:26:10.836Z,102893.69
2022-08-07T00:28:45.622Z,102897.44
2022-08-07T00:31:16.689Z,102894.03
2022-08-07T00:33:47.720Z,102887.22
2022-08-07T00:36:14.488Z,102879.41
2022-08-07T00:38:40.931Z,102876.84
2022-08-07T00:41:10.043Z,102883.06
2022-08-07T00:44:01.747Z,102879.75
2022-08-07T00:46:29.130Z,102877.34
2022-08-07T00:48:55.802Z,102868.88
2022-08-07T00:51:22.243Z,102865.44
2022-08-07T00:53:55.896Z,102871.75
2022-08-07T00:56:30.247Z,102870.91
2022-08-07T00:58:57.855Z,102878.84
2022-08-07T01:01:24.538Z,102866.38
2022-08-07T01:03:55.831Z,102874.50
2022-08-07T01:06:27.994Z,102867.47
2022-08-07T01:08:56.294Z,102871.06
2022-08-07T01:12:09.179Z,102868.72
2022-08-07T01:14:16.594Z,102861.88
2022-08-07T01:16:47.264Z,102860.31
2022-08-07T01:19:18.794Z,102858.56
2022-08-07T01:21:48.960Z,102865.38
2022-08-07T01:24:18.744Z,102855.75
2022-08-07T01:26:52.270Z,102859.47
2022-08-07T01:29:20.525Z,102862.28
2022-08-07T01:31:49.171Z,102854.38
2022-08-07T01:34:17.735Z,102862.38
2022-08-07T01:36:52.459Z,102866.78
2022-08-07T01:39:24.444Z,102858.28
2022-08-07T01:42:37.109Z,102857.59
2022-08-07T01:44:53.073Z,102856.75
2022-08-07T01:48:17.762Z,102845.53
2022-08-07T01:50:06.810Z,102853.34
2022-08-07T01:52:35.192Z,102849.78
2022-08-07T01:55:03.858Z,102847.88
2022-08-07T01:58:01.294Z,102846.19
2022-08-07T02:00:28.879Z,102844.66
2022-08-07T02:03:11.997Z,102847.28
2022-08-07T02:05:59.745Z,102846.38
2022-08-07T02:08:29.257Z,102842.78
2022-08-07T02:10:58.160Z,102847.22
2022-08-07T02:13:58.277Z,102847.88
2022-08-07T02:16:14.767Z,102847.88
2022-08-07T02:18:47.044Z,102847.88
2022-08-07T02:21:16.405Z,102843.66
2022-08-07T02:23:45.061Z,102849.06
2022-08-07T02:26:32.880Z,102846.53
2022-08-07T02:29:02.235Z,102837.84
2022-08-07T02:31:30.123Z,102845.00
2022-08-07T02:34:11.431Z,102848.56
2022-08-07T02:36:45.317Z,102845.34
2022-08-07T02:39:16.937Z,102834.94
2022-08-07T02:42:02.902Z,102835.19
2022-08-07T02:44:37.388Z,102831.97
2022-08-07T02:47:19.747Z,102836.56
2022-08-07T02:49:57.777Z,102842.78
2022-08-07T02:52:51.962Z,102837.31
2022-08-07T02:55:28.332Z,102831.19
2022-08-07T02:58:13.371Z,102837.50
2022-08-07T03:00:42.141Z,102832.41
2022-08-07T03:03:22.689Z,102826.44
2022-08-07T03:05:53.554Z,102829.91
2022-08-07T03:08:29.176Z,102828.81
2022-08-07T03:10:57.412Z,102819.97
2022-08-07T03:13:24.595Z,102824.41
2022-08-07T03:15:56.541Z,102820.81
2022-08-07T03:18:34.285Z,102825.25
2022-08-07T03:21:04.674Z,102837.69
2022-08-07T03:24:20.466Z,102828.97
2022-08-07T03:26:34.846Z,102822.94
2022-08-07T03:29:05.505Z,102825.56
2022-08-07T03:31:42.481Z,102827.28
2022-08-07T03:34:18.214Z,102827.13
2022-08-07T03:36:49.815Z,102820.31
2022-08-07T03:39:17.625Z,102825.56
2022-08-07T03:42:06.353Z,102828.97
2022-08-07T03:44:37.466Z,102821.84
2022-08-07T03:47:13.029Z,102819.97
2022-08-07T03:49:51.860Z,102820.13
2022-08-07T03:52:22.567Z,102822.00
2022-08-07T03:54:54.993Z,102824.03
2022-08-07T03:58:33.205Z,102819.69
2022-08-07T04:00:14.316Z,102818.75
2022-08-07T04:02:43.099Z,102824.81
2022-08-07T04:05:14.022Z,102822.19
2022-08-07T04:07:51.233Z,102825.56
2022-08-07T04:10:19.537Z,102822.69
2022-08-07T04:12:48.782Z,102817.44
2022-08-07T04:15:19.098Z,102825.25
2022-08-07T04:18:30.797Z,102832.03
2022-08-07T04:20:35.147Z,102828.31
2022-08-07T04:23:06.440Z,102825.59
2022-08-07T04:25:39.000Z,102829.06
2022-08-07T04:28:10.188Z,102829.91
2022-08-07T04:30:51.266Z,102832.50
2022-08-07T04:33:24.769Z,102839.56
2022-08-07T04:35:54.022Z,102841.25
2022-08-07T04:38:21.857Z,102838.88
2022-08-07T04:40:52.057Z,102842.59
2022-08-07T04:44:10.470Z,102842.78
2022-08-07T04:46:25.785Z,102844.78
2022-08-07T04:49:18.365Z,102839.53
2022-08-07T04:52:00.136Z,102837.81
2022-08-07T04:54:51.031Z,102846.50
2022-08-07T04:58:13.073Z,102846.50
2022-08-07T05:00:30.856Z,102846.34
2022-08-07T05:03:59.877Z,102850.34
2022-08-07T05:06:20.418Z,102852.31
2022-08-07T05:09:12.643Z,102849.16
2022-08-07T05:11:57.314Z,102843.31
2022-08-07T05:14:54.377Z,102848.00
2022-08-07T05:17:52.454Z,102843.16
2022-08-07T05:20:13.739Z,102854.88
2022-08-07T05:22:43.481Z,102851.13
2022-08-07T05:25:25.760Z,102850.00
2022-08-07T05:28:16.733Z,102857.41
2022-08-07T05:30:47.118Z,102855.19
2022-08-07T05:33:14.916Z,102852.78
2022-08-07T05:35:42.526Z,102862.44
2022-08-07T05:38:10.573Z,102863.72
2022-08-07T05:40:50.362Z,102864.59
2022-08-07T05:43:18.724Z,102860.03
2022-08-07T05:45:46.903Z,102850.31
2022-08-07T05:48:15.295Z,102844.56
2022-08-07T05:50:43.459Z,102843.41
2022-08-07T05:54:12.053Z,102838.81
2022-08-07T05:56:03.249Z,102841.22
2022-08-07T05:58:36.631Z,102848.03
2022-08-07T06:01:05.985Z,102842.19
2022-08-07T06:03:56.929Z,102858.53
2022-08-07T06:06:29.354Z,102862.81
2022-08-07T06:08:57.106Z,102860.28
2022-08-07T06:11:25.096Z,102862.84
2022-08-07T06:14:12.652Z,102860.09
2022-08-07T06:16:39.696Z,102842.22
2022-08-07T06:19:06.918Z,102843.88
2022-08-07T06:22:14.586Z,102846.16
2022-08-07T06:24:45.436Z,102849.94
2022-08-07T06:27:06.966Z,102849.91
2022-08-07T06:29:34.463Z,102844.53
2022-08-07T06:32:05.451Z,102850.03
2022-08-07T06:34:31.896Z,102851.31
2022-08-07T06:36:58.348Z,102852.97
2022-08-07T06:40:16.542Z,102860.63
2022-08-07T06:42:33.031Z,102848.19
2022-08-07T06:45:02.433Z,102840.47
2022-08-07T06:47:38.745Z,102841.16
2022-08-07T06:50:15.063Z,102835.53
2022-08-07T06:52:53.017Z,102841.72
2022-08-07T06:55:33.325Z,102839.25
2022-08-07T06:58:13.765Z,102841.69
2022-08-07T07:00:44.372Z,102841.16
2022-08-07T07:03:13.836Z,102840.84
2022-08-07T07:06:05.475Z,102821.38
2022-08-07T07:08:33.028Z,102816.47
2022-08-07T07:11:00.972Z,102822.59
2022-08-07T07:13:56.265Z,102831.78
2022-08-07T07:16:34.389Z,102822.69
2022-08-07T07:19:55.679Z,102830.38
2022-08-07T07:22:04.800Z,102833.66
2022-08-07T07:24:42.976Z,102833.72
2022-08-07T07:27:35.641Z,102850.22
2022-08-07T07:30:32.336Z,102846.19
2022-08-07T07:33:01.346Z,102844.47
2022-08-07T07:35:28.390Z,102842.13
2022-08-07T07:38:05.834Z,102853.50
2022-08-07T07:40:34.776Z,102843.84
2022-08-07T07:43:15.440Z,102837.84
2022-08-07T07:46:38.576Z,102836.78
2022-08-07T07:48:36.515Z,102827.84
2022-08-07T07:51:08.133Z,102834.88
2022-08-07T07:53:51.256Z,102826.53
2022-08-07T07:56:30.245Z,102830.31
2022-08-07T07:59:00.217Z,102823.00
2022-08-07T08:02:03.336Z,102824.47
2022-08-07T08:04:18.421Z,102821.13
2022-08-07T08:06:48.156Z,102812.66
2022-08-07T08:09:23.249Z,102805.53
2022-08-07T08:12:02.221Z,102811.50
2022-08-07T08:14:31.479Z,102811.56
2022-08-07T08:17:56.389Z,102813.16
2022-08-07T08:20:18.752Z,102815.34
2022-08-07T08:23:02.276Z,102811.47
2022-08-07T08:25:51.156Z,102803.91
2022-08-07T08:28:38.242Z,102800.56
2022-08-07T08:31:14.577Z,102808.69
2022-08-07T08:33:48.934Z,102812.16
2022-08-07T08:36:25.487Z,102800.84
2022-08-07T08:38:57.463Z,102797.19
2022-08-07T08:41:57.522Z,102797.03
2022-08-07T08:44:57.110Z,102799.25
2022-08-07T08:47:28.937Z,102801.53
2022-08-07T08:50:39.581Z,102794.84
2022-08-07T08:53:19.222Z,102797.31
2022-08-07T08:55:59.165Z,102797.78
2022-08-07T08:58:54.676Z,102792.78
2022-08-07T09:01:40.118Z,102792.22
2022-08-07T09:04:36.683Z,102789.91
2022-08-07T09:07:11.446Z,102786.75
2022-08-07T09:10:17.629Z,102792.97
2022-08-07T09:13:36.946Z,102778.78
2022-08-07T09:16:21.957Z,102777.09
2022-08-07T09:19:07.143Z,102785.09
2022-08-07T09:24:33.192Z,102786.34
2022-08-07T09:26:05.496Z,102783.22
2022-08-07T09:30:05.813Z,102779.50
2022-08-07T09:31:54.829Z,102782.72
2022-08-07T09:34:27.625Z,102780.53
2022-08-07T09:37:00.167Z,102777.63
2022-08-07T09:39:56.068Z,102775.63
2022-08-07T09:42:39.516Z,102762.53
2022-08-07T09:47:25.279Z,102765.06
2022-08-07T09:50:00.887Z,102756.69
2022-08-07T09:52:16.021Z,102761.34
2022-08-07T09:54:57.648Z,102761.53
2022-08-07T09:57:46.838Z,102751.06
2022-08-07T10:00:16.643Z,102755.47
2022-08-07T10:04:07.207Z,102760.94
2022-08-07T10:06:36.162Z,102752.66
2022-08-07T10:09:34.320Z,102752.94
2022-08-07T10:12:32.515Z,102734.47
2022-08-07T10:15:44.281Z,102735.03
2022-08-07T10:18:49.608Z,102743.47
2022-08-07T10:22:12.293Z,102729.66
2022-08-07T10:24:30.051Z,102727.28
2022-08-07T10:27:46.785Z,102726.75
2022-08-07T10:30:17.835Z,102718.44
2022-08-07T10:33:05.709Z,102717.84
2022-08-07T10:36:10.958Z,102725.34
2022-08-07T10:39:01.497Z,102714.50
2022-08-07T10:41:52.063Z,102718.25
2022-08-07T10:44:39.176Z,102708.69
2022-08-07T10:47:53.581Z,102703.88
2022-08-07T10:50:29.484Z,102700.44
2022-08-07T10:52:55.807Z,102707.09
2022-08-07T10:55:37.783Z,102699.09
2022-08-07T10:58:59.601Z,102689.06
2022-08-07T11:01:51.393Z,102693.59
2022-08-07T11:04:51.196Z,102693.78
2022-08-07T11:07:58.784Z,102678.84
2022-08-07T11:10:29.775Z,102685.00
2022-08-07T11:13:42.266Z,102681.41
2022-08-07T11:16:08.377Z,102669.56
2022-08-07T11:19:07.008Z,102665.44
2022-08-07T11:21:50.080Z,102661.16
2022-08-07T11:24:32.981Z,102660.22
2022-08-07T11:27:13.505Z,102665.22
2022-08-07T11:30:18.040Z,102653.28
2022-08-07T11:33:01.199Z,102651.78
2022-08-07T11:35:59.219Z,102661.75
2022-08-07T11:38:33.328Z,102650.16
2022-08-07T11:41:09.328Z,102643.47
2022-08-07T11:44:11.364Z,102648.69
2022-08-07T11:47:02.337Z,102651.78
2022-08-07T11:50:32.300Z,102652.78
2022-08-07T11:53:16.160Z,102641.47
2022-08-07T11:56:25.528Z,102641.94
2022-08-07T11:59:22.208Z,102623.53
2022-08-07T12:02:20.717Z,102626.94
2022-08-07T12:04:59.423Z,102616.59
2022-08-07T12:07:38.750Z,102616.41
2022-08-07T12:10:13.660Z,102622.75
2022-08-07T12:12:46.502Z,102627.13
2022-08-07T12:15:46.216Z,102619.81
2022-08-07T12:18:29.812Z,102621.94
2022-08-07T12:22:36.985Z,102618.22
2022-08-07T12:24:38.181Z,102630.34
2022-08-07T12:27:15.922Z,102626.22
2022-08-07T12:29:51.811Z,102621.78
2022-08-07T12:32:28.756Z,102617.47
2022-08-07T12:34:58.339Z,102619.31
2022-08-07T12:37:28.289Z,102625.16
2022-08-07T12:40:43.986Z,102625.16
2022-08-07T12:43:09.239Z,102617.75
2022-08-07T12:45:45.111Z,102617.25
2022-08-07T12:48:41.462Z,102613.31
2022-08-07T12:51:23.959Z,102619.25
2022-08-07T12:54:38.740Z,102617.44
2022-08-07T12:57:07.372Z,102616.75
2022-08-07T12:59:54.253Z,102618.72
2022-08-07T13:02:39.996Z,102623.09
2022-08-07T13:06:04.477Z,102624.91
2022-08-07T13:08:43.338Z,102625.16
2022-08-07T13:12:01.972Z,102614.91
2022-08-07T13:14:34.928Z,102614.84
2022-08-07T13:17:39.990Z,102616.22
2022-08-07T13:20:27.755Z,102612.59
2022-08-07T13:22:59.277Z,102613.38
2022-08-07T13:25:45.624Z,102609.09
2022-08-07T13:28:25.178Z,102611.41
2022-08-07T13:31:06.443Z,102611.91
2022-08-07T13:34:30.769Z,102602.78
2022-08-07T13:36:59.460Z,102602.34
2022-08-07T13:40:34.018Z,102590.34
2022-08-07T13:42:25.941Z,102593.22
2022-08-07T13:46:06.628Z,102589.72
2022-08-07T13:48:06.017Z,102592.97
2022-08-07T13:50:44.472Z,102594.19
2022-08-07T13:53:23.796Z,102580.69
2022-08-07T13:55:54.613Z,102590.09
2022-08-07T13:58:56.556Z,102594.41
2022-08-07T14:01:26.949Z,102581.94
2022-08-07T14:04:05.421Z,102586.25
2022-08-07T14:06:40.403Z,102590.78
2022-08-07T14:09:17.195Z,102587.69
2022-08-07T14:12:07.314Z,102588.66
2022-08-07T14:14:48.392Z,102581.72
2022-08-07T14:18:12.711Z,102579.34
2022-08-07T14:20:43.458Z,102585.19
2022-08-07T14:23:18.040Z,102585.19
2022-08-07T14:26:11.357Z,102592.13
2022-08-07T14:29:10.512Z,102587.31
2022-08-07T14:31:57.946Z,102574.50
2022-08-07T14:34:30.333Z,102577.03
2022-08-07T14:37:03.144Z,102582.34
2022-08-07T14:40:18.105Z,102585.06
2022-08-07T14:42:32.554Z,102585.19
2022-08-07T14:45:22.376Z,102594.91
2022-08-07T14:50:45.579Z,102585.47
2022-08-07T14:53:16.307Z,102584.41
2022-08-07T14:56:13.069Z,102576.00
2022-08-07T14:58:43.951Z,102575.88
2022-08-07T15:01:21.691Z,102569.38
2022-08-07T15:03:52.453Z,102564.44
2022-08-07T15:06:27.435Z,102568.00
2022-08-07T15:12:06.798Z,102565.63
2022-08-07T15:14:35.197Z,102573.88
2022-08-07T15:17:32.512Z,102562.59
2022-08-07T15:23:15.088Z,102559.09
2022-08-07T15:25:50.862Z,102559.81
2022-08-07T15:32:00.591Z,102561.28
2022-08-07T15:34:02.171Z,102560.47
2022-08-07T15:37:03.852Z,102563.66
2022-08-07T15:39:17.156Z,102559.66
2022-08-07T15:42:44.755Z,102552.09
2022-08-07T15:44:52.027Z,102539.84
2022-08-07T15:47:21.348Z,102555.66
2022-08-07T15:53:15.429Z,102546.44
2022-08-07T15:56:02.588Z,102554.34
2022-08-07T15:58:41.553Z,102556.56
2022-08-07T16:01:20.150Z,102547.31
2022-08-07T16:03:54.412Z,102549.47
2022-08-07T16:06:30.387Z,102541.56
2022-08-07T16:09:01.843Z,102536.00
2022-08-07T16:11:41.685Z,102532.13
2022-08-07T16:14:48.620Z,102534.47
2022-08-07T16:18:02.134Z,102522.72
2022-08-07T16:20:55.192Z,102523.88
2022-08-07T16:23:58.675Z,102527.09
2022-08-07T16:26:30.823Z,102529.09
2022-08-07T16:30:06.345Z,102526.44
2022-08-07T16:32:46.610Z,102530.16
2022-08-07T16:35:51.606Z,102524.59
2022-08-07T16:38:09.623Z,102536.34
2022-08-07T16:41:01.468Z,102534.16
2022-08-07T16:44:05.553Z,102532.16
2022-08-07T16:47:18.622Z,102530.50
2022-08-07T16:50:36.290Z,102539.91
2022-08-07T16:54:01.738Z,102535.56
2022-08-07T16:56:20.146Z,102536.22
2022-08-07T16:59:11.276Z,102535.38
2022-08-07T17:01:47.705Z,102521.44
2022-08-07T17:04:33.031Z,102528.34
2022-08-07T17:07:28.178Z,102539.09
2022-08-07T17:10:32.529Z,102543.91
2022-08-07T17:13:41.252Z,102541.53
2022-08-07T17:16:28.463Z,102544.53
2022-08-07T17:19:03.804Z,102539.50
2022-08-07T17:21:51.876Z,102528.75
2022-08-07T17:24:55.254Z,102527.88
2022-08-07T17:27:50.703Z,102535.75
2022-08-07T17:30:20.250Z,102539.06
2022-08-07T17:34:08.327Z,102533.00
2022-08-07T17:36:20.922Z,102533.31
2022-08-07T17:38:50.956Z,102535.69
2022-08-07T17:42:04.071Z,102533.59
2022-08-07T17:44:45.267Z,102534.63
2022-08-07T17:47:42.309Z,102535.56
2022-08-07T17:50:22.341Z,102539.56
2022-08-07T17:53:00.516Z,102525.81
2022-08-07T17:56:00.363Z,102530.13
2022-08-07T17:58:46.526Z,102542.00
2022-08-07T18:01:39.585Z,102539.81
2022-08-07T18:04:24.724Z,102538.44
2022-08-07T18:07:22.903Z,102535.00
2022-08-07T18:10:07.265Z,102541.16
2022-08-07T18:12:51.267Z,102540.94
2022-08-07T18:15:35.661Z,102545.25
2022-08-07T18:18:39.941Z,102542.69
2022-08-07T18:21:42.360Z,102547.25
2022-08-07T18:24:33.034Z,102548.97
2022-08-07T18:27:22.807Z,102551.78
2022-08-07T18:30:07.621Z,102548.63
2022-08-07T18:33:15.931Z,102554.03
2022-08-07T18:36:14.380Z,102557.78
2022-08-07T18:40:06.630Z,102560.25
2022-08-07T18:42:16.778Z,102568.16
2022-08-07T18:45:42.838Z,102566.38
2022-08-07T18:49:23.729Z,102565.25
2022-08-07T18:52:35.501Z,102563.06
2022-08-07T18:54:30.509Z,102574.66
2022-08-07T18:57:30.111Z,102568.19
2022-08-07T19:00:32.963Z,102576.09
2022-08-07T19:03:02.750Z,102573.84
2022-08-07T19:06:02.064Z,102576.97
2022-08-07T19:08:49.427Z,102593.84
2022-08-07T19:11:36.559Z,102585.41
2022-08-07T19:14:40.992Z,102589.63
2022-08-07T19:18:01.643Z,102585.69
2022-08-07T19:20:28.731Z,102595.81
2022-08-07T19:23:18.413Z,102592.72
2022-08-07T19:26:22.768Z,102593.81
2022-08-07T19:31:00.694Z,102595.22
2022-08-07T19:32:10.955Z,102593.38
2022-08-07T19:34:40.293Z,102606.13
2022-08-07T19:37:17.313Z,102605.28
2022-08-07T19:39:56.359Z,102609.75
2022-08-07T19:42:26.955Z,102610.56
2022-08-07T19:45:08.010Z,102620.50
2022-08-07T19:47:43.175Z,102624.28
2022-08-07T19:50:44.392Z,102626.47
2022-08-07T19:52:59.003Z,102629.81
2022-08-07T19:55:56.446Z,102625.75
2022-08-07T19:58:16.800Z,102629.50
2022-08-07T20:00:55.440Z,102634.00
2022-08-07T20:03:34.565Z,102631.72
2022-08-07T20:06:06.278Z,102627.50
2022-08-07T20:08:48.817Z,102630.00
2022-08-07T20:11:23.061Z,102629.41
2022-08-07T20:14:03.018Z,102626.44
2022-08-07T20:16:36.778Z,102632.41
2022-08-07T20:19:25.153Z,102638.84
2022-08-07T20:21:56.955Z,102641.78
2022-08-07T20:24:30.128Z,102648.47
2022-08-07T20:27:01.894Z,102650.56
2022-08-07T20:29:47.950Z,102644.06
2022-08-07T20:32:54.699Z,102643.31
2022-08-07T20:35:26.483Z,102637.56
2022-08-07T20:37:57.762Z,102648.44
2022-08-07T20:40:32.407Z,102646.06
2022-08-07T20:43:02.168Z,102648.38
2022-08-07T20:45:33.126Z,102647.59
2022-08-07T20:48:28.455Z,102653.41
2022-08-07T20:50:59.196Z,102645.44
2022-08-07T20:54:03.880Z,102641.69
2022-08-07T20:56:16.035Z,102650.53
2022-08-07T20:58:49.671Z,102647.66
2022-08-07T21:01:21.451Z,102635.81
2022-08-07T21:04:19.633Z,102642.22
2022-08-07T21:06:46.557Z,102643.31
2022-08-07T21:09:24.660Z,102656.16
2022-08-07T21:11:57.527Z,102656.91
2022-08-07T21:14:31.984Z,102651.81
2022-08-07T21:18:20.782Z,102658.22
2022-08-07T21:20:05.173Z,102663.19
2022-08-07T21:22:44.685Z,102659.81
2022-08-07T21:25:28.874Z,102649.53
2022-08-07T21:28:09.279Z,102658.00
2022-08-07T21:30:57.493Z,102650.63
2022-08-07T21:33:41.129Z,102648.94
2022-08-07T21:36:31.896Z,102644.59
2022-08-07T21:39:47.181Z,102638.53
2022-08-07T21:42:14.971Z,102653.41
2022-08-07T21:46:05.436Z,102644.69
2022-08-07T21:48:29.225Z,102646.75
2022-08-07T21:51:32.082Z,102653.13
2022-08-07T21:54:25.452Z,102651.22
2022-08-07T21:56:54.908Z,102652.78
2022-08-07T21:59:30.583Z,102649.16
2022-08-07T22:02:11.106Z,102653.75
2022-08-07T22:04:51.165Z,102662.00
2022-08-07T22:07:31.703Z,102654.50
2022-08-07T22:10:17.529Z,102659.31
2022-08-07T22:12:46.839Z,102661.25
2022-08-07T22:16:41.891Z,102663.16
2022-08-07T22:18:23.701Z,102665.81
2022-08-07T22:20:59.445Z,102665.94
2022-08-07T22:23:56.829Z,102664.25
2022-08-07T22:26:30.698Z,102670.84
2022-08-07T22:29:23.625Z,102669.50
2022-08-07T22:32:20.406Z,102671.56
2022-08-07T22:34:54.608Z,102674.91
2022-08-07T22:38:03.581Z,102677.56
2022-08-07T22:40:37.178Z,102686.44
2022-08-07T22:43:10.795Z,102679.78
2022-08-07T22:47:02.583Z,102683.34
2022-08-07T22:49:59.751Z,102684.88
2022-08-07T22:52:48.686Z,102688.47
2022-08-07T22:55:44.471Z,102694.00
2022-08-07T22:58:35.073Z,102698.94
2022-08-07T23:01:41.943Z,102692.13
2022-08-07T23:04:58.178Z,102695.59
2022-08-07T23:08:24.354Z,102705.03
2022-08-07T23:11:26.603Z,102695.75
2022-08-07T23:14:16.005Z,102701.91
2022-08-07T23:17:30.428Z,102698.84
2022-08-07T23:20:40.288Z,102700.13
2022-08-07T23:24:06.464Z,102703.28
2022-08-07T23:26:25.075Z,102702.88
2022-08-07T23:29:43.918Z,102706.06
2022-08-07T23:34:23.251Z,102700.34
2022-08-07T23:35:16.706Z,102698.00
2022-08-07T23:38:00.726Z,102703.50
2022-08-07T23:40:51.651Z,102695.78
2022-08-07T23:43:52.568Z,102695.91
2022-08-07T23:46:37.391Z,102695.25
2022-08-07T23:49:42.045Z,102705.00
2022-08-07T23:53:01.036Z,102708.31
2022-08-07T23:55:53.601Z,102704.47
2022-08-07T23:58:21.191Z,102703.97
